.
WxDataArchive / Data Records for 2012-07-17
2012-07-16 July 2012 2012-07-18

Data Records for Tuesday, 17 July 2012

Time	Temp	Chill	HIndex	Humid	Dewpt	 Wind 	HiWind	WindDir	Rain 	Barom 
-----	----	-----	------	-----	-----	------	------	-------	-----	----- 
00:00	81.4	81.4	83.4	59	65.7	0	0	---	0.00	29.851 
00:05	81.2	81.2	83.2	59	65.5	0	0	---	0.00	29.851 
00:10	81.1	81.1	83.2	60	65.9	0	0	---	0.00	29.851 
00:15	80.9	80.9	82.9	60	65.7	0	0	---	0.00	29.851 
00:20	80.7	80.7	82.8	61	66.0	0	0	---	0.00	29.851 
00:25	80.3	80.3	82.4	62	66.1	0	0	---	0.00	29.851 
00:30	80.1	80.1	82.2	62	65.9	0	0	---	0.00	29.850 
00:35	79.9	79.9	81.9	62	65.7	0	0	---	0.00	29.850 
00:40	79.8	79.8	81.9	63	66.1	0	0	---	0.00	29.850 
00:45	79.4	79.4	81.4	63	65.7	0	0	---	0.00	29.849 
00:50	79.2	79.2	81.2	64	65.9	0	0	---	0.00	29.849 
00:55	79.0	79.0	81.0	64	65.8	0	0	---	0.00	29.849 
01:00	78.8	78.8	80.8	65	66.0	0	0	---	0.00	29.849 
01:05	78.5	78.5	80.4	65	65.7	0	0	---	0.00	29.849 
01:10	78.3	78.3	80.2	65	65.5	0	0	---	0.00	29.849 
01:15	78.1	78.1	80.0	67	66.2	0	0	---	0.00	29.846 
01:20	77.9	77.9	79.8	67	66.0	0	0	---	0.00	29.846 
01:25	77.7	77.7	79.6	68	66.3	0	0	---	0.00	29.846 
01:30	77.6	77.6	79.5	69	66.6	0	0	---	0.00	29.848 
01:35	77.4	77.4	79.2	69	66.4	0	0	---	0.00	29.848 
01:40	77.2	77.2	79.0	69	66.2	0	0	---	0.00	29.848 
01:45	77.0	77.0	78.8	70	66.4	0	0	---	0.00	29.850 
01:50	76.8	76.8	78.5	70	66.3	0	0	---	0.00	29.850 
01:55	76.7	76.7	78.4	70	66.2	0	0	---	0.00	29.850 
02:00	76.7	76.7	78.4	71	66.6	0	0	---	0.00	29.851 
02:05	76.5	76.5	78.2	71	66.4	0	0	---	0.00	29.851 
02:10	76.3	76.3	77.9	72	66.6	0	0	---	0.00	29.851 
02:15	76.3	76.3	77.8	73	67.0	0	0	---	0.00	29.850 
02:20	76.3	76.3	77.8	73	67.0	0	0	---	0.00	29.850 
02:25	76.1	76.1	77.6	73	66.8	0	0	---	0.00	29.850 
02:30	76.3	76.3	77.8	73	67.0	0	0	---	0.00	29.850 
02:35	76.3	76.3	77.8	73	67.0	0	0	---	0.00	29.850 
02:40	76.3	76.3	77.9	72	66.6	0	0	---	0.00	29.850 
02:45	76.3	76.3	77.9	72	66.6	0	0	---	0.00	29.850 
02:50	76.1	76.1	77.6	73	66.8	0	0	---	0.00	29.850 
02:55	76.0	76.0	77.5	73	66.7	0	0	---	0.00	29.850 
03:00	76.0	76.0	77.5	73	66.7	0	0	---	0.00	29.851 
03:05	76.0	76.0	77.5	73	66.7	0	0	---	0.00	29.851 
03:10	75.8	75.8	77.3	73	66.5	0	0	---	0.00	29.851 
03:15	75.8	75.8	77.3	73	66.5	0	0	---	0.00	29.848 
03:20	75.8	75.8	77.3	73	66.5	0	0	---	0.00	29.848 
03:25	75.8	75.8	77.3	72	66.1	0	0	---	0.00	29.848 
03:30	76.0	76.0	77.5	72	66.3	0	0	---	0.00	29.843 
03:35	76.0	76.0	77.6	71	65.9	0	1	292	0.00	29.843 
03:40	76.0	76.0	77.6	71	65.9	0	0	---	0.00	29.843 
03:45	76.0	76.0	77.6	71	65.9	0	0	---	0.00	29.844 
03:50	76.1	76.1	77.7	71	66.0	0	1	292	0.00	29.844 
03:55	76.3	76.3	78.0	70	65.8	0	1	292	0.00	29.844 
04:00	76.5	76.5	78.2	70	66.0	0	0	---	0.00	29.840 
04:05	76.5	76.5	78.2	70	66.0	0	1	292	0.00	29.840 
04:10	76.5	76.5	78.2	70	66.0	0	0	---	0.00	29.840 
04:15	76.3	76.3	77.9	71	66.2	0	1	292	0.00	29.842 
04:20	76.5	76.5	78.2	71	66.4	0	0	---	0.00	29.842 
04:25	76.5	76.5	78.2	71	66.4	0	0	---	0.00	29.842 
04:30	76.5	76.5	78.2	71	66.4	0	0	---	0.00	29.837 
04:35	76.3	76.3	77.9	71	66.2	0	0	---	0.00	29.837 
04:40	76.1	76.1	77.7	72	66.4	0	0	---	0.00	29.837 
04:45	76.1	76.1	77.7	72	66.4	0	0	---	0.00	29.837 
04:50	76.1	76.1	77.7	72	66.4	0	0	---	0.00	29.837 
04:55	76.0	76.0	77.5	73	66.7	0	0	---	0.00	29.837 
05:00	75.8	75.8	77.3	73	66.5	0	0	---	0.00	29.840 
05:05	75.8	75.8	77.2	74	66.9	0	1	292	0.00	29.840 
05:10	76.0	76.0	77.4	74	67.1	0	1	292	0.00	29.840 
05:15	76.1	76.1	77.5	74	67.2	0	0	---	0.00	29.843 
05:20	76.3	76.3	77.8	74	67.4	0	1	292	0.00	29.843 
05:25	76.5	76.5	78.1	74	67.6	0	1	292	0.00	29.843 
05:30	76.7	76.7	78.3	73	67.4	0	1	292	0.00	29.846 
05:35	76.8	76.8	78.5	73	67.5	0	1	292	0.00	29.846 
05:40	77.0	77.0	78.7	73	67.7	0	1	292	0.00	29.846 
05:45	77.2	77.2	79.0	73	67.9	0	1	292	0.00	29.850 
05:50	77.0	77.0	78.7	73	67.7	0	1	292	0.00	29.850 
05:55	77.0	77.0	78.7	73	67.7	0	1	292	0.00	29.850 
06:00	77.0	77.0	78.7	73	67.7	0	1	292	0.00	29.848 
06:05	77.0	77.0	78.7	73	67.7	0	1	292	0.00	29.848 
06:10	77.2	77.2	79.0	73	67.9	0	1	292	0.00	29.848 
06:15	77.2	77.2	79.0	73	67.9	0	1	292	0.00	29.849 
06:20	77.2	77.2	79.0	73	67.9	0	1	292	0.00	29.849 
06:25	77.2	77.2	79.0	73	67.9	0	1	292	0.00	29.849 
06:30	77.0	77.0	78.7	73	67.7	0	1	292	0.00	29.850 
06:35	77.2	77.2	79.0	74	68.3	0	1	292	0.00	29.850 
06:40	77.2	77.2	79.0	74	68.3	0	1	292	0.00	29.850 
06:45	77.2	77.2	79.0	74	68.3	0	1	292	0.00	29.853 
06:50	77.4	77.4	79.3	74	68.4	0	1	292	0.00	29.853 
06:55	77.4	77.4	79.3	74	68.4	0	1	292	0.00	29.853 
07:00	77.6	77.6	79.6	74	68.6	0	1	292	0.00	29.851 
07:05	77.7	77.7	79.7	74	68.7	0	2	292	0.00	29.851 
07:10	77.9	77.9	80.0	73	68.5	0	1	292	0.00	29.851 
07:15	78.1	78.1	80.3	73	68.7	0	2	292	0.00	29.851 
07:20	78.3	78.3	80.6	73	68.9	0	2	292	0.00	29.851 
07:25	78.5	78.5	80.9	73	69.1	0	2	292	0.00	29.851 
07:30	78.8	78.8	81.3	72	69.0	1	3	292	0.00	29.851 
07:35	79.2	79.2	81.8	71	69.0	1	2	292	0.00	29.851 
07:40	79.4	79.4	82.1	71	69.2	1	3	292	0.00	29.851 
07:45	79.8	79.8	82.6	70	69.1	1	3	292	0.00	29.851 
07:50	79.9	79.9	82.7	69	68.8	1	3	292	0.00	29.851 
07:55	80.3	80.3	83.3	69	69.2	1	3	292	0.00	29.851 
08:00	80.7	80.7	83.8	68	69.1	1	3	292	0.00	29.850 
08:05	80.9	80.9	84.0	67	68.9	1	3	292	0.00	29.850 
08:10	81.2	81.2	84.5	67	69.2	1	4	292	0.00	29.850 
08:15	81.6	81.6	84.9	66	69.1	1	3	292	0.00	29.854 
08:20	82.2	82.2	85.7	65	69.2	1	3	292	0.00	29.854 
08:25	82.4	82.4	85.8	64	69.0	1	4	292	0.00	29.854 
08:30	82.8	82.8	86.3	63	68.9	1	4	270	0.00	29.858 
08:35	83.2	83.2	86.7	62	68.8	2	4	270	0.00	29.858 
08:40	83.4	83.4	87.0	62	69.0	1	3	270	0.00	29.858 
08:45	83.8	83.8	87.5	61	68.9	2	4	270	0.00	29.858 
08:50	84.1	84.1	87.7	60	68.7	1	3	270	0.00	29.858 
08:55	84.7	84.7	88.4	59	68.8	1	3	270	0.00	29.858 
09:00	84.7	84.7	88.4	59	68.8	2	5	270	0.00	29.856 
09:05	84.9	84.9	88.5	58	68.4	2	4	270	0.00	29.856 
09:10	85.3	85.3	89.2	58	68.8	1	4	270	0.00	29.856 
09:15	85.5	85.5	89.5	58	69.0	2	3	270	0.00	29.851 
09:20	85.9	85.9	90.2	58	69.4	1	3	270	0.00	29.851 
09:25	86.5	86.5	90.6	56	68.9	1	3	270	0.00	29.851 
09:30	87.0	87.0	90.8	54	68.3	1	3	270	0.00	29.851 
09:35	87.4	87.4	91.1	53	68.1	2	4	270	0.00	29.851 
09:40	87.6	87.6	91.5	53	68.3	2	4	270	0.00	29.851 
09:45	87.6	87.6	91.5	53	68.3	3	6	270	0.00	29.850 
09:50	87.8	87.8	91.8	53	68.5	2	5	270	0.00	29.850 
09:55	88.2	88.2	91.8	51	67.7	2	4	270	0.00	29.850 
10:00	88.8	88.8	92.4	50	67.7	2	4	315	0.00	29.849 
10:05	89.0	89.0	92.8	50	67.9	2	4	292	0.00	29.849 
10:10	89.3	89.3	93.3	50	68.2	2	4	270	0.00	29.849 
10:15	89.5	89.5	93.7	50	68.4	3	5	270	0.00	29.850 
10:20	89.3	89.3	93.3	50	68.2	3	6	270	0.00	29.850 
10:25	89.7	89.7	94.0	50	68.5	2	5	270	0.00	29.850 
10:30	90.3	90.3	95.2	50	69.1	2	5	270	0.00	29.850 
10:35	90.7	90.7	95.5	49	68.9	2	4	270	0.00	29.850 
10:40	91.2	91.2	95.5	47	68.1	3	5	270	0.00	29.850 
10:45	91.2	91.2	95.0	46	67.5	2	5	248	0.00	29.848 
10:50	91.4	91.4	95.4	46	67.7	3	5	270	0.00	29.848 
10:55	91.6	91.6	95.7	46	67.8	2	5	270	0.00	29.848 
11:00	92.1	92.1	96.7	46	68.3	2	5	270	0.00	29.846 
11:05	92.3	92.3	96.5	45	67.8	2	5	315	0.00	29.846 
11:10	92.3	92.3	97.0	46	68.5	3	6	270	0.00	29.846 
11:15	92.5	92.5	96.9	45	68.0	3	6	270	0.00	29.844 
11:20	92.9	92.9	97.2	44	67.7	2	4	270	0.00	29.844 
11:25	93.4	93.4	97.6	43	67.5	2	4	248	0.00	29.844 
11:30	93.6	93.6	98.5	44	68.4	2	5	248	0.00	29.839 
11:35	93.8	93.8	98.3	43	67.9	2	5	270	0.00	29.839 
11:40	93.8	93.8	98.3	43	67.9	2	5	270	0.00	29.839 
11:45	93.8	93.8	98.3	43	67.9	2	5	270	0.00	29.840 
11:50	94.0	94.0	98.2	42	67.4	2	4	248	0.00	29.840 
11:55	93.6	93.6	97.4	42	67.0	3	5	270	0.00	29.840 
12:00	93.4	93.4	96.6	41	66.1	2	6	270	0.00	29.835 
12:05	94.0	94.0	98.2	42	67.4	2	9	270	0.00	29.835 
12:10	94.0	94.0	98.2	42	67.4	2	4	292	0.00	29.835 
12:15	93.8	93.8	98.3	43	67.9	1	5	292	0.00	29.836 
12:20	94.5	94.5	99.7	43	68.5	2	5	270	0.00	29.836 
12:25	95.4	95.4	100.3	41	67.9	2	5	315	0.00	29.836 
12:30	96.3	96.3	99.7	37	65.7	2	5	270	0.00	29.833 
12:35	95.9	95.9	99.6	38	66.1	2	5	270	0.00	29.833 
12:40	94.5	94.5	98.1	40	66.4	2	5	315	0.00	29.833 
12:45	94.3	94.3	98.2	41	66.9	2	5	292	0.00	29.833 
12:50	94.9	94.9	98.3	39	66.0	2	5	270	0.00	29.833 
12:55	95.4	95.4	99.2	39	66.5	2	4	270	0.00	29.833 
13:00	96.1	96.1	99.4	37	65.6	3	5	270	0.00	29.825 
13:05	96.8	96.8	99.5	35	64.6	3	5	270	0.00	29.825 
13:10	96.8	96.8	100.1	36	65.4	2	6	270	0.00	29.825 
13:15	96.3	96.3	99.2	36	64.9	1	4	315	0.00	29.823 
13:20	95.9	95.9	99.0	37	65.4	2	5	315	0.00	29.823 
13:25	95.9	95.9	99.0	37	65.4	3	5	270	0.00	29.823 
13:30	95.6	95.6	98.5	37	65.1	3	5	270	0.00	29.821 
13:35	96.1	96.1	98.8	36	64.8	3	5	292	0.00	29.821 
13:40	96.6	96.6	99.7	36	65.2	3	5	270	0.00	29.821 
13:45	95.9	95.9	99.0	37	65.4	2	5	270	0.00	29.819 
13:50	95.9	95.9	98.5	36	64.6	3	5	292	0.00	29.819 
13:55	96.6	96.6	99.2	35	64.4	1	4	248	0.00	29.819 
14:00	96.1	96.1	98.3	35	64.0	1	4	292	0.00	29.818 
14:05	96.1	96.1	98.8	36	64.8	2	4	270	0.00	29.818 
14:10	96.1	96.1	98.8	36	64.8	1	4	270	0.00	29.818 
14:15	95.4	95.4	98.7	38	65.7	3	6	338	0.00	29.819 
14:20	95.1	95.1	98.1	38	65.4	2	4	270	0.00	29.819 
14:25	95.1	95.1	98.1	38	65.4	2	4	270	0.00	29.819 
14:30	95.6	95.6	98.5	37	65.1	2	5	270	0.00	29.809 
14:35	95.6	95.6	98.5	37	65.1	2	5	248	0.00	29.809 
14:40	95.1	95.1	98.1	38	65.4	1	4	292	0.00	29.809 
14:45	95.1	95.1	98.6	39	66.2	1	3	292	0.00	29.807 
14:50	95.4	95.4	98.1	37	64.9	2	5	292	0.00	29.807 
14:55	95.1	95.1	98.1	38	65.4	3	5	270	0.00	29.807 
15:00	95.1	95.1	98.1	38	65.4	2	5	270	0.00	29.803 
15:05	95.9	95.9	98.5	36	64.6	2	4	270	0.00	29.803 
15:10	96.3	96.3	99.2	36	64.9	1	2	270	0.00	29.803 
15:15	97.5	97.5	100.8	35	65.2	2	6	270	0.00	29.789 
15:20	97.5	97.5	100.8	35	65.2	2	4	292	0.00	29.789 
15:25	96.8	96.8	99.5	35	64.6	2	4	315	0.00	29.789 
15:30	96.3	96.3	98.7	35	64.1	1	4	315	0.00	29.789 
15:35	96.6	96.6	99.2	35	64.4	2	5	270	0.00	29.789 
15:40	97.3	97.3	100.4	35	65.0	1	3	292	0.00	29.789 
15:45	97.1	97.1	100.1	35	64.8	3	5	292	0.00	29.790 
15:50	96.1	96.1	99.4	37	65.6	3	6	315	0.00	29.790 
15:55	95.9	95.9	98.5	36	64.6	3	6	315	0.00	29.790 
16:00	95.4	95.4	97.6	36	64.2	3	6	270	0.00	29.790 
16:05	94.7	94.7	96.9	37	64.3	1	4	292	0.00	29.790 
16:10	94.3	94.3	97.2	39	65.5	2	4	292	0.00	29.790 
16:15	94.0	94.0	96.7	39	65.2	1	4	315	0.00	29.790 
16:20	94.0	94.0	97.2	40	65.9	2	5	315	0.00	29.790 
16:25	93.4	93.4	97.1	42	66.8	3	6	270	0.00	29.790 
16:30	92.9	92.9	96.2	42	66.4	3	5	270	0.00	29.797 
16:35	92.5	92.5	95.9	43	66.7	2	5	270	0.00	29.797 
16:40	92.3	92.3	96.5	45	67.8	0	3	270	0.00	29.797 
16:45	92.1	92.1	96.2	45	67.7	1	2	270	0.00	29.792 
16:50	91.8	91.8	95.6	45	67.4	1	2	270	0.00	29.792 
16:55	91.8	91.8	95.6	45	67.4	1	2	270	0.00	29.792 
17:00	91.8	91.8	95.2	44	66.7	1	2	270	0.00	29.789 
17:05	92.1	92.1	94.4	41	65.0	1	2	270	0.00	29.789 
17:10	92.5	92.5	94.6	40	64.6	1	2	270	0.00	29.789 
17:15	92.7	92.7	94.5	39	64.1	1	2	270	0.00	29.779 
17:20	93.2	93.2	94.9	38	63.8	1	3	270	0.00	29.779 
17:25	93.2	93.2	94.5	37	63.0	1	3	270	0.00	29.779 
17:30	93.4	93.4	94.8	37	63.2	0	2	270	0.00	29.787 
17:35	93.6	93.6	95.1	37	63.4	1	3	270	0.00	29.787 
17:40	93.6	93.6	95.5	38	64.1	1	2	270	0.00	29.787 
17:45	93.8	93.8	95.9	38	64.3	1	3	270	0.00	29.787 
17:50	93.6	93.6	96.0	39	64.9	1	3	270	0.00	29.787 
17:55	93.6	93.6	96.0	39	64.9	2	4	270	0.00	29.787 
18:00	93.6	93.6	95.5	38	64.1	2	4	270	0.00	29.781 
18:05	93.6	93.6	95.5	38	64.1	2	5	292	0.00	29.781 
18:10	93.6	93.6	96.0	39	64.9	2	4	270	0.00	29.781 
18:15	93.4	93.4	96.1	40	65.4	1	2	270	0.00	29.775 
18:20	93.4	93.4	96.1	40	65.4	1	3	270	0.00	29.775 
18:25	93.4	93.4	96.6	41	66.1	0	2	270	0.00	29.775 
18:30	93.2	93.2	96.7	42	66.6	0	2	270	0.00	29.773 
18:35	93.2	93.2	96.7	42	66.6	0	2	270	0.00	29.773 
18:40	92.9	92.9	95.7	41	65.7	1	3	270	0.00	29.773 
18:45	92.7	92.7	95.8	42	66.2	1	3	270	0.00	29.765 
18:50	92.5	92.5	95.5	42	66.0	1	3	270	0.00	29.765 
18:55	92.3	92.3	95.6	43	66.5	0	2	270	0.00	29.765 
19:00	92.3	92.3	95.6	43	66.5	1	3	270	0.00	29.770 
19:05	92.1	92.1	95.2	43	66.3	0	2	270	0.00	29.770 
19:10	91.8	91.8	94.7	43	66.1	0	2	270	0.00	29.770 
19:15	91.6	91.6	94.4	43	65.9	1	2	270	0.00	29.774 
19:20	91.4	91.4	94.9	45	67.0	2	4	270	0.00	29.774 
19:25	91.0	91.0	94.6	46	67.3	1	3	270	0.00	29.774 
19:30	90.1	90.1	93.9	48	67.7	2	4	270	0.00	29.790 
19:35	89.3	89.3	92.5	48	67.0	2	5	270	0.00	29.790 
19:40	88.6	88.6	91.7	49	67.0	2	6	248	0.00	29.790 
19:45	88.0	88.0	91.0	50	67.0	1	3	248	0.00	29.791 
19:50	87.8	87.8	91.1	51	67.4	1	3	248	0.00	29.791 
19:55	87.6	87.6	90.7	51	67.2	1	2	248	0.00	29.791 
20:00	87.4	87.4	90.4	51	67.0	1	2	248	0.00	29.794 
20:05	87.4	87.4	90.4	51	67.0	1	3	248	0.00	29.794 
20:10	87.6	87.6	90.7	51	67.2	1	3	248	0.00	29.794 
20:15	87.6	87.6	90.7	51	67.2	0	1	248	0.00	29.798 
20:20	87.6	87.6	90.7	51	67.2	0	2	248	0.00	29.798 
20:25	87.4	87.4	90.4	51	67.0	1	2	248	0.00	29.798 
20:30	87.6	87.6	90.7	51	67.2	0	2	248	0.00	29.799 
20:35	87.4	87.4	90.4	51	67.0	0	1	248	0.00	29.799 
20:40	87.4	87.4	90.4	51	67.0	0	2	248	0.00	29.799 
20:45	87.4	87.4	90.4	51	67.0	0	2	248	0.00	29.804 
20:50	87.4	87.4	90.7	52	67.6	0	2	248	0.00	29.804 
20:55	87.2	87.2	90.4	52	67.4	0	1	248	0.00	29.804 
21:00	87.2	87.2	90.4	52	67.4	0	1	248	0.00	29.818 
21:05	87.2	87.2	90.4	52	67.4	0	2	248	0.00	29.818 
21:10	87.2	87.2	90.8	53	67.9	0	1	248	0.00	29.818 
21:15	87.0	87.0	90.4	53	67.8	0	1	248	0.00	29.815 
21:20	86.7	86.7	89.9	53	67.5	0	1	248	0.00	29.815 
21:25	86.7	86.7	90.3	54	68.0	0	1	248	0.00	29.815 
21:30	86.5	86.5	89.9	54	67.8	0	1	248	0.00	29.825 
21:35	86.5	86.5	89.9	54	67.8	0	1	248	0.00	29.825 
21:40	86.3	86.3	89.9	55	68.2	0	2	248	0.00	29.825 
21:45	85.5	85.5	88.3	54	66.9	2	6	315	0.00	29.846 
21:50	84.7	84.7	87.3	55	66.7	1	3	315	0.00	29.846 
21:55	84.0	84.0	86.3	55	66.1	1	4	315	0.00	29.846 
22:00	83.2	83.2	85.1	55	65.3	1	5	292	0.00	29.841 
22:05	82.8	82.8	84.8	56	65.5	0	1	292	0.00	29.841 
22:10	82.2	82.2	84.0	56	64.9	0	1	292	0.00	29.841 
22:15	81.8	81.8	83.6	57	65.0	0	1	292	0.00	29.834 
22:20	81.6	81.6	83.4	57	64.9	0	0	---	0.00	29.834 
22:25	81.4	81.4	83.1	57	64.7	0	0	---	0.00	29.834 
22:30	81.1	81.1	82.9	58	64.9	0	1	292	0.00	29.839 
22:35	80.9	80.9	82.7	58	64.7	0	1	292	0.00	29.839 
22:40	80.9	80.9	82.7	58	64.7	0	3	292	0.00	29.839 
22:45	80.7	80.7	82.4	58	64.5	0	0	---	0.00	29.837 
22:50	80.5	80.5	82.3	59	64.8	0	0	---	0.00	29.837 
22:55	80.3	80.3	82.2	60	65.1	0	0	---	0.00	29.837 
23:00	79.9	79.9	81.7	60	64.7	0	0	---	0.00	29.833 
23:05	79.8	79.8	81.6	60	64.7	0	0	---	0.00	29.833 
23:10	79.6	79.6	81.4	61	64.9	0	0	---	0.00	29.833 
23:15	79.4	79.4	81.3	62	65.2	0	0	---	0.00	29.830 
23:20	79.2	79.2	81.1	62	65.0	0	2	248	0.00	29.830 
23:25	79.2	79.2	81.1	62	65.0	0	1	248	0.00	29.830 
23:30	79.2	79.2	81.1	62	65.0	0	1	248	0.00	29.835 
23:35	79.2	79.2	81.1	62	65.0	0	1	248	0.00	29.835 
23:40	79.2	79.2	81.1	62	65.0	0	0	---	0.00	29.835 
23:45	79.2	79.2	81.1	62	65.0	0	0	---	0.00	29.835 
23:50	79.2	79.2	81.1	62	65.0	0	0	---	0.00	29.835 
23:55	79.2	79.2	81.1	62	65.0	0	0	---	0.00	29.835 

CoCoRaHS
IN-AL-39
A2 Web Hosting
Creative Commons License
GoDaddy
search engine by freefind advanced

loaded 2018-11-13 22:14:45 • last modified 2010-11-18 10:43:29
Privacy PolicyDisclaimer
• wx.awcolley.com is powered by PmWiki v.2002016 •
• all content (unless otherwise noted) © 2018 A W Colley